sensor_id;sensor_type;location;lat;lon;timestamp;pressure;altitude;pressure_sealevel;temperature;humidity
8140;BME280;4111;50.972;7.072;2024-03-23T00:54:13;100454.09;;;9.82;100.00
8140;BME280;4111;50.972;7.072;2024-03-23T00:56:39;100458.38;;;9.78;100.00
8140;BME280;4111;50.972;7.072;2024-03-23T00:59:04;100442.94;;;9.78;100.00
8140;BME280;4111;50.972;7.072;2024-03-23T01:01:30;100443.16;;;9.77;100.00
8140;BME280;4111;50.972;7.072;2024-03-23T01:03:55;100440.44;;;9.77;100.00
8140;BME280;4111;50.972;7.072;2024-03-23T01:06:21;100443.75;;;9.79;100.00
8140;BME280;4111;50.972;7.072;2024-03-23T01:08:46;100430.41;;;9.77;100.00
8140;BME280;4111;50.972;7.072;2024-03-23T01:11:12;100432.75;;;9.68;100.00
8140;BME280;4111;50.972;7.072;2024-03-23T01:13:37;100434.06;;;9.66;100.00
8140;BME280;4111;50.972;7.072;2024-03-23T01:16:03;100430.03;;;9.68;100.00
8140;BME280;4111;50.972;7.072;2024-03-23T01:18:29;100436.22;;;9.64;100.00
8140;BME280;4111;50.972;7.072;2024-03-23T01:20:54;100434.78;;;9.61;100.00
8140;BME280;4111;50.972;7.072;2024-03-23T01:23:20;100436.13;;;9.59;100.00
8140;BME280;4111;50.972;7.072;2024-03-23T01:25:53;100425.19;;;9.53;100.00
8140;BME280;4111;50.972;7.072;2024-03-23T01:28:20;100420.75;;;9.47;100.00
8140;BME280;4111;50.972;7.072;2024-03-23T01:30:45;100419.94;;;9.47;100.00
8140;BME280;4111;50.972;7.072;2024-03-23T01:33:11;100418.81;;;9.43;100.00
8140;BME280;4111;50.972;7.072;2024-03-23T01:35:37;100430.13;;;9.40;100.00
8140;BME280;4111;50.972;7.072;2024-03-23T01:38:03;100432.34;;;9.43;100.00
8140;BME280;4111;50.972;7.072;2024-03-23T01:40:29;100440.97;;;9.40;100.00
8140;BME280;4111;50.972;7.072;2024-03-23T01:42:58;100436.84;;;9.37;100.00
8140;BME280;4111;50.972;7.072;2024-03-23T01:45:24;100437.03;;;9.30;100.00
8140;BME280;4111;50.972;7.072;2024-03-23T01:47:51;100436.59;;;9.22;100.00
8140;BME280;4111;50.972;7.072;2024-03-23T01:50:17;100437.34;;;9.17;100.00
8140;BME280;4111;50.972;7.072;2024-03-23T01:52:42;100421.25;;;9.10;100.00
8140;BME280;4111;50.972;7.072;2024-03-23T01:55:08;100424.69;;;9.06;100.00
8140;BME280;4111;50.972;7.072;2024-03-23T01:57:33;100416.47;;;9.01;100.00
8140;BME280;4111;50.972;7.072;2024-03-23T01:59:59;100419.44;;;8.99;100.00
8140;BME280;4111;50.972;7.072;2024-03-23T02:02:24;100416.78;;;8.87;100.00
8140;BME280;4111;50.972;7.072;2024-03-23T02:04:50;100420.53;;;8.86;100.00
8140;BME280;4111;50.972;7.072;2024-03-23T02:07:16;100420.66;;;8.91;100.00
8140;BME280;4111;50.972;7.072;2024-03-23T02:09:41;100419.81;;;8.91;100.00
8140;BME280;4111;50.972;7.072;2024-03-23T02:12:08;100411.84;;;8.84;100.00
8140;BME280;4111;50.972;7.072;2024-03-23T02:14:33;100419.16;;;8.84;100.00
8140;BME280;4111;50.972;7.072;2024-03-23T02:16:59;100420.69;;;8.80;100.00
8140;BME280;4111;50.972;7.072;2024-03-23T02:19:24;100426.34;;;8.78;100.00
8140;BME280;4111;50.972;7.072;2024-03-23T02:21:50;100425.19;;;8.74;100.00
8140;BME280;4111;50.972;7.072;2024-03-23T02:24:15;100416.72;;;8.70;100.00
8140;BME280;4111;50.972;7.072;2024-03-23T02:26:41;100424.03;;;8.70;100.00
8140;BME280;4111;50.972;7.072;2024-03-23T02:29:06;100418.84;;;8.68;100.00
8140;BME280;4111;50.972;7.072;2024-03-23T02:31:32;100417.69;;;8.64;100.00
8140;BME280;4111;50.972;7.072;2024-03-23T02:33:57;100424.19;;;8.63;100.00
8140;BME280;4111;50.972;7.072;2024-03-23T02:36:23;100440.91;;;8.60;100.00
8140;BME280;4111;50.972;7.072;2024-03-23T02:38:48;100425.38;;;8.56;100.00
8140;BME280;4111;50.972;7.072;2024-03-23T02:41:14;100422.69;;;8.56;100.00
8140;BME280;4111;50.972;7.072;2024-03-23T02:43:39;100420.94;;;8.49;100.00
8140;BME280;4111;50.972;7.072;2024-03-23T02:46:05;100428.94;;;8.44;100.00
8140;BME280;4111;50.972;7.072;2024-03-23T02:48:30;100430.84;;;8.44;100.00
8140;BME280;4111;50.972;7.072;2024-03-23T02:50:56;100438.16;;;8.31;100.00
8140;BME280;4111;50.972;7.072;2024-03-23T02:53:21;100446.38;;;8.25;100.00
8140;BME280;4111;50.972;7.072;2024-03-23T02:55:47;100453.69;;;8.12;100.00
8140;BME280;4111;50.972;7.072;2024-03-23T02:58:12;100459.22;;;8.06;100.00
8140;BME280;4111;50.972;7.072;2024-03-23T03:00:38;100458.88;;;8.02;100.00
8140;BME280;4111;50.972;7.072;2024-03-23T03:03:03;100451.81;;;8.01;100.00
8140;BME280;4111;50.972;7.072;2024-03-23T03:05:29;100454.78;;;7.88;100.00
8140;BME280;4111;50.972;7.072;2024-03-23T03:07:55;100448.66;;;7.92;100.00
8140;BME280;4111;50.972;7.072;2024-03-23T03:10:20;100448.16;;;7.95;100.00
8140;BME280;4111;50.972;7.072;2024-03-23T03:12:46;100447.13;;;7.97;100.00
8140;BME280;4111;50.972;7.072;2024-03-23T03:15:11;100447.47;;;8.00;100.00
8140;BME280;4111;50.972;7.072;2024-03-23T03:17:36;100453.94;;;7.99;100.00
8140;BME280;4111;50.972;7.072;2024-03-23T03:20:02;100443.13;;;7.99;100.00
8140;BME280;4111;50.972;7.072;2024-03-23T03:22:30;100432.78;;;7.96;100.00
8140;BME280;4111;50.972;7.072;2024-03-23T03:24:55;100426.66;;;7.89;100.00
8140;BME280;4111;50.972;7.072;2024-03-23T03:27:20;100420.47;;;7.77;100.00
8140;BME280;4111;50.972;7.072;2024-03-23T03:29:47;100424.09;;;7.70;100.00
8140;BME280;4111;50.972;7.072;2024-03-23T03:32:13;100439.25;;;7.71;100.00
8140;BME280;4111;50.972;7.072;2024-03-23T03:34:38;100449.69;;;7.80;100.00
8140;BME280;4111;50.972;7.072;2024-03-23T03:37:04;100444.78;;;7.77;100.00
8140;BME280;4111;50.972;7.072;2024-03-23T03:39:29;100444.88;;;7.82;100.00
8140;BME280;4111;50.972;7.072;2024-03-23T03:41:55;100440.19;;;7.77;100.00
8140;BME280;4111;50.972;7.072;2024-03-23T03:44:20;100436.09;;;7.74;100.00
8140;BME280;4111;50.972;7.072;2024-03-23T03:46:46;100436.44;;;7.78;100.00
8140;BME280;4111;50.972;7.072;2024-03-23T03:49:12;100442.09;;;7.77;100.00
8140;BME280;4111;50.972;7.072;2024-03-23T03:51:37;100441.00;;;7.78;100.00
8140;BME280;4111;50.972;7.072;2024-03-23T03:54:03;100438.91;;;7.80;100.00
8140;BME280;4111;50.972;7.072;2024-03-23T03:56:28;100427.84;;;7.81;100.00
8140;BME280;4111;50.972;7.072;2024-03-23T03:58:54;100443.97;;;7.76;100.00
8140;BME280;4111;50.972;7.072;2024-03-23T04:01:19;100439.38;;;7.77;100.00
8140;BME280;4111;50.972;7.072;2024-03-23T04:03:45;100446.41;;;7.78;100.00
8140;BME280;4111;50.972;7.072;2024-03-23T04:06:11;100445.59;;;7.77;100.00
8140;BME280;4111;50.972;7.072;2024-03-23T04:08:37;100450.19;;;7.77;100.00
8140;BME280;4111;50.972;7.072;2024-03-23T04:11:03;100450.19;;;7.77;100.00
8140;BME280;4111;50.972;7.072;2024-03-23T04:13:29;100451.47;;;7.74;100.00
8140;BME280;4111;50.972;7.072;2024-03-23T04:15:55;100459.94;;;7.78;100.00
8140;BME280;4111;50.972;7.072;2024-03-23T04:18:21;100448.16;;;7.84;100.00
8140;BME280;4111;50.972;7.072;2024-03-23T04:20:48;100460.28;;;7.69;100.00
8140;BME280;4111;50.972;7.072;2024-03-23T04:23:13;100460.28;;;7.69;100.00
8140;BME280;4111;50.972;7.072;2024-03-23T04:25:39;100460.75;;;7.66;100.00
8140;BME280;4111;50.972;7.072;2024-03-23T04:28:04;100462.41;;;7.67;100.00
8140;BME280;4111;50.972;7.072;2024-03-23T04:30:30;100451.50;;;7.62;100.00
8140;BME280;4111;50.972;7.072;2024-03-23T04:32:57;100454.53;;;7.66;100.00
8140;BME280;4111;50.972;7.072;2024-03-23T04:35:24;100458.53;;;7.75;100.00
8140;BME280;4111;50.972;7.072;2024-03-23T04:37:50;100466.41;;;7.77;100.00
8140;BME280;4111;50.972;7.072;2024-03-23T04:40:17;100468.16;;;7.83;100.00
8140;BME280;4111;50.972;7.072;2024-03-23T04:42:43;100465.81;;;7.74;100.00
8140;BME280;4111;50.972;7.072;2024-03-23T04:45:09;100465.34;;;7.78;100.00
8140;BME280;4111;50.972;7.072;2024-03-23T04:47:37;100464.28;;;7.79;100.00
8140;BME280;4111;50.972;7.072;2024-03-23T04:50:04;100473.94;;;7.74;100.00
8140;BME280;4111;50.972;7.072;2024-03-23T04:52:29;100468.53;;;7.74;100.00
8140;BME280;4111;50.972;7.072;2024-03-23T04:54:55;100474.28;;;7.78;100.00
8140;BME280;4111;50.972;7.072;2024-03-23T04:57:20;100465.91;;;7.80;100.00
8140;BME280;4111;50.972;7.072;2024-03-23T04:59:46;100465.09;;;7.79;100.00
8140;BME280;4111;50.972;7.072;2024-03-23T05:02:13;100461.00;;;7.77;100.00
8140;BME280;4111;50.972;7.072;2024-03-23T05:04:38;100470.06;;;7.82;100.00
8140;BME280;4111;50.972;7.072;2024-03-23T05:07:04;100457.47;;;7.76;100.00
8140;BME280;4111;50.972;7.072;2024-03-23T05:09:30;100458.66;;;7.68;100.00
8140;BME280;4111;50.972;7.072;2024-03-23T05:11:59;100456.06;;;7.73;100.00
8140;BME280;4111;50.972;7.072;2024-03-23T05:14:28;100446.53;;;7.71;100.00
8140;BME280;4111;50.972;7.072;2024-03-23T05:16:54;100450.66;;;7.73;100.00
8140;BME280;4111;50.972;7.072;2024-03-23T05:19:20;100460.41;;;7.74;100.00
8140;BME280;4111;50.972;7.072;2024-03-23T05:21:45;100470.16;;;7.75;100.00
8140;BME280;4111;50.972;7.072;2024-03-23T05:24:11;100463.34;;;7.61;100.00
8140;BME280;4111;50.972;7.072;2024-03-23T05:26:37;100473.19;;;7.67;100.00
8140;BME280;4111;50.972;7.072;2024-03-23T05:29:03;100481.44;;;7.72;100.00
8140;BME280;4111;50.972;7.072;2024-03-23T05:31:30;100483.56;;;7.70;100.00
8140;BME280;4111;50.972;7.072;2024-03-23T05:33:56;100489.66;;;7.78;100.00
8140;BME280;4111;50.972;7.072;2024-03-23T05:36:23;100478.25;;;7.75;100.00
8140;BME280;4111;50.972;7.072;2024-03-23T05:38:51;100482.13;;;7.68;100.00
8140;BME280;4111;50.972;7.072;2024-03-23T05:41:16;100480.00;;;7.58;100.00
8140;BME280;4111;50.972;7.072;2024-03-23T05:43:42;100479.31;;;7.51;100.00
8140;BME280;4111;50.972;7.072;2024-03-23T05:46:07;100481.88;;;7.46;100.00
8140;BME280;4111;50.972;7.072;2024-03-23T05:48:34;100478.13;;;7.47;100.00
8140;BME280;4111;50.972;7.072;2024-03-23T05:50:59;100479.75;;;7.48;100.00
8140;BME280;4111;50.972;7.072;2024-03-23T05:53:25;100463.78;;;7.58;100.00
8140;BME280;4111;50.972;7.072;2024-03-23T05:55:51;100480.34;;;7.50;100.00
8140;BME280;4111;50.972;7.072;2024-03-23T05:58:25;100481.78;;;7.52;100.00
8140;BME280;4111;50.972;7.072;2024-03-23T06:00:57;100484.38;;;7.59;100.00
8140;BME280;4111;50.972;7.072;2024-03-23T06:03:22;100487.78;;;7.66;100.00
8140;BME280;4111;50.972;7.072;2024-03-23T06:05:48;100494.09;;;7.60;100.00
8140;BME280;4111;50.972;7.072;2024-03-23T06:08:13;100502.47;;;7.59;100.00
8140;BME280;4111;50.972;7.072;2024-03-23T06:10:40;100496.22;;;7.58;100.00
8140;BME280;4111;50.972;7.072;2024-03-23T06:13:06;100497.28;;;7.57;100.00
8140;BME280;4111;50.972;7.072;2024-03-23T06:15:31;100493.03;;;7.49;100.00
8140;BME280;4111;50.972;7.072;2024-03-23T06:17:57;100494.81;;;7.55;100.00
8140;BME280;4111;50.972;7.072;2024-03-23T06:20:22;100496.56;;;7.50;100.00
8140;BME280;4111;50.972;7.072;2024-03-23T06:22:48;100499.63;;;7.53;100.00
8140;BME280;4111;50.972;7.072;2024-03-23T06:25:13;100498.44;;;7.49;100.00
8140;BME280;4111;50.972;7.072;2024-03-23T06:27:39;100503.13;;;7.54;100.00
8140;BME280;4111;50.972;7.072;2024-03-23T06:30:05;100503.28;;;7.59;100.00
8140;BME280;4111;50.972;7.072;2024-03-23T06:32:32;100501.63;;;7.58;100.00
8140;BME280;4111;50.972;7.072;2024-03-23T06:34:57;100502.34;;;7.65;100.00
8140;BME280;4111;50.972;7.072;2024-03-23T06:37:23;100499.63;;;7.65;100.00
8140;BME280;4111;50.972;7.072;2024-03-23T06:39:48;100498.00;;;7.64;100.00
8140;BME280;4111;50.972;7.072;2024-03-23T06:42:14;100504.00;;;7.66;100.00
8140;BME280;4111;50.972;7.072;2024-03-23T06:44:39;100506.22;;;7.69;100.00
8140;BME280;4111;50.972;7.072;2024-03-23T06:47:05;100520.56;;;7.70;100.00
8140;BME280;4111;50.972;7.072;2024-03-23T06:49:31;100522.22;;;7.71;100.00
8140;BME280;4111;50.972;7.072;2024-03-23T06:51:56;100517.03;;;7.69;100.00
8140;BME280;4111;50.972;7.072;2024-03-23T06:54:22;100523.50;;;7.68;100.00
8140;BME280;4111;50.972;7.072;2024-03-23T06:56:47;100525.13;;;7.69;100.00
8140;BME280;4111;50.972;7.072;2024-03-23T06:59:13;100526.69;;;7.77;100.00
8140;BME280;4111;50.972;7.072;2024-03-23T07:01:39;100515.75;;;7.84;100.00
8140;BME280;4111;50.972;7.072;2024-03-23T07:04:05;100508.59;;;7.89;100.00
8140;BME280;4111;50.972;7.072;2024-03-23T07:06:31;100516.00;;;7.94;100.00
8140;BME280;4111;50.972;7.072;2024-03-23T07:08:56;100517.41;;;8.08;100.00
8140;BME280;4111;50.972;7.072;2024-03-23T07:11:22;100516.22;;;8.28;100.00
8140;BME280;4111;50.972;7.072;2024-03-23T07:13:52;100512.09;;;8.37;100.00
8140;BME280;4111;50.972;7.072;2024-03-23T07:16:20;100517.19;;;8.45;100.00
8140;BME280;4111;50.972;7.072;2024-03-23T07:18:45;100523.41;;;8.46;100.00
8140;BME280;4111;50.972;7.072;2024-03-23T07:21:11;100517.66;;;8.42;100.00
8140;BME280;4111;50.972;7.072;2024-03-23T07:23:36;100522.94;;;8.49;100.00
8140;BME280;4111;50.972;7.072;2024-03-23T07:26:04;100520.31;;;8.66;100.00
8140;BME280;4111;50.972;7.072;2024-03-23T07:28:31;100513.84;;;8.67;100.00
8140;BME280;4111;50.972;7.072;2024-03-23T07:31:10;100523.09;;;8.83;100.00
8140;BME280;4111;50.972;7.072;2024-03-23T07:33:38;100518.59;;;8.88;99.83
8140;BME280;4111;50.972;7.072;2024-03-23T07:36:06;100526.44;;;9.02;99.47
8140;BME280;4111;50.972;7.072;2024-03-23T07:38:32;100528.44;;;9.06;98.83
8140;BME280;4111;50.972;7.072;2024-03-23T07:41:09;100529.44;;;9.17;98.59
8140;BME280;4111;50.972;7.072;2024-03-23T07:43:35;100524.31;;;9.32;97.95
8140;BME280;4111;50.972;7.072;2024-03-23T07:46:01;100524.16;;;9.39;97.88
8140;BME280;4111;50.972;7.072;2024-03-23T07:48:28;100531.06;;;9.47;96.86
8140;BME280;4111;50.972;7.072;2024-03-23T07:50:58;100534.59;;;9.47;95.81
8140;BME280;4111;50.972;7.072;2024-03-23T07:53:23;100524.91;;;9.68;96.22
8140;BME280;4111;50.972;7.072;2024-03-23T07:56:00;100526.22;;;9.83;96.04
8140;BME280;4111;50.972;7.072;2024-03-23T07:58:26;100529.28;;;9.86;95.25
8140;BME280;4111;50.972;7.072;2024-03-23T08:00:56;100530.00;;;9.65;93.83
8140;BME280;4111;50.972;7.072;2024-03-23T08:03:22;100531.50;;;9.72;93.86
8140;BME280;4111;50.972;7.072;2024-03-23T08:05:48;100526.53;;;9.69;93.85
8140;BME280;4111;50.972;7.072;2024-03-23T08:08:14;100536.25;;;9.65;94.36
8140;BME280;4111;50.972;7.072;2024-03-23T08:10:52;100532.31;;;9.56;94.12
8140;BME280;4111;50.972;7.072;2024-03-23T08:13:19;100528.69;;;9.67;93.82
8140;BME280;4111;50.972;7.072;2024-03-23T08:15:44;100529.84;;;9.88;93.91
8140;BME280;4111;50.972;7.072;2024-03-23T08:18:13;100536.28;;;9.99;93.16
8140;BME280;4111;50.972;7.072;2024-03-23T08:20:41;100531.81;;;10.10;92.15
8140;BME280;4111;50.972;7.072;2024-03-23T08:23:07;100529.00;;;10.22;91.15
8140;BME280;4111;50.972;7.072;2024-03-23T08:25:33;100533.84;;;10.37;90.80
8140;BME280;4111;50.972;7.072;2024-03-23T08:27:59;100538.75;;;10.57;90.39
8140;BME280;4111;50.972;7.072;2024-03-23T08:30:24;100536.16;;;10.67;88.89
8140;BME280;4111;50.972;7.072;2024-03-23T08:32:50;100544.66;;;10.76;87.52
8140;BME280;4111;50.972;7.072;2024-03-23T08:35:15;100538.91;;;10.72;86.08
8140;BME280;4111;50.972;7.072;2024-03-23T08:37:41;100535.91;;;10.90;86.18
8140;BME280;4111;50.972;7.072;2024-03-23T08:40:07;100534.13;;;10.79;84.71
8140;BME280;4111;50.972;7.072;2024-03-23T08:42:34;100533.03;;;10.58;83.20
8140;BME280;4111;50.972;7.072;2024-03-23T08:44:59;100538.19;;;10.55;82.76
8140;BME280;4111;50.972;7.072;2024-03-23T08:47:25;100539.88;;;10.39;82.05
8140;BME280;4111;50.972;7.072;2024-03-23T08:49:51;100554.56;;;10.26;81.20
8140;BME280;4111;50.972;7.072;2024-03-23T08:52:16;100546.84;;;10.18;81.35
8140;BME280;4111;50.972;7.072;2024-03-23T08:54:42;100553.59;;;10.15;81.09
8140;BME280;4111;50.972;7.072;2024-03-23T08:57:07;100554.84;;;10.07;80.83
8140;BME280;4111;50.972;7.072;2024-03-23T08:59:33;100567.41;;;10.13;80.73
8140;BME280;4111;50.972;7.072;2024-03-23T09:01:58;100550.50;;;10.28;81.10
8140;BME280;4111;50.972;7.072;2024-03-23T09:04:24;100557.59;;;10.12;80.29
8140;BME280;4111;50.972;7.072;2024-03-23T09:06:50;100550.69;;;10.22;80.45
8140;BME280;4111;50.972;7.072;2024-03-23T09:11:42;100544.28;;;10.28;80.25
8140;BME280;4111;50.972;7.072;2024-03-23T09:14:07;100543.97;;;10.41;80.79
8140;BME280;4111;50.972;7.072;2024-03-23T09:16:34;100543.31;;;10.34;80.67
8140;BME280;4111;50.972;7.072;2024-03-23T09:19:00;100540.34;;;10.19;80.14
8140;BME280;4111;50.972;7.072;2024-03-23T09:21:26;100550.69;;;10.22;80.80
8140;BME280;4111;50.972;7.072;2024-03-23T09:23:54;100542.41;;;10.11;79.98
8140;BME280;4111;50.972;7.072;2024-03-23T09:26:20;100532.59;;;10.44;79.41
8140;BME280;4111;50.972;7.072;2024-03-23T09:28:48;100531.75;;;10.61;79.08
8140;BME280;4111;50.972;7.072;2024-03-23T09:31:17;100534.00;;;10.69;78.49
8140;BME280;4111;50.972;7.072;2024-03-23T09:33:43;100528.56;;;10.91;78.71
8140;BME280;4111;50.972;7.072;2024-03-23T09:36:09;100534.25;;;10.89;78.59
8140;BME280;4111;50.972;7.072;2024-03-23T09:38:34;100530.34;;;10.80;78.43
8140;BME280;4111;50.972;7.072;2024-03-23T09:41:06;100530.41;;;10.85;78.04
8140;BME280;4111;50.972;7.072;2024-03-23T09:43:32;100532.16;;;10.97;76.77
8140;BME280;4111;50.972;7.072;2024-03-23T09:45:57;100527.31;;;11.26;76.82
8140;BME280;4111;50.972;7.072;2024-03-23T09:48:23;100517.44;;;11.47;75.89
8140;BME280;4111;50.972;7.072;2024-03-23T09:50:48;100511.16;;;11.74;76.35
8140;BME280;4111;50.972;7.072;2024-03-23T09:53:14;100511.03;;;11.90;74.65
8140;BME280;4111;50.972;7.072;2024-03-23T09:55:41;100508.66;;;11.99;72.81
8140;BME280;4111;50.972;7.072;2024-03-23T09:58:07;100511.03;;;11.90;72.21
8140;BME280;4111;50.972;7.072;2024-03-23T10:00:36;100514.84;;;11.89;71.74
8140;BME280;4111;50.972;7.072;2024-03-23T10:03:02;100483.94;;;12.01;70.85
8140;BME280;4111;50.972;7.072;2024-03-23T10:05:31;100501.56;;;11.93;69.71
8140;BME280;4111;50.972;7.072;2024-03-23T10:10:45;100499.94;;;11.97;69.39
8140;BME280;4111;50.972;7.072;2024-03-23T10:13:11;100505.28;;;11.87;69.13
8140;BME280;4111;50.972;7.072;2024-03-23T10:15:39;100506.16;;;11.60;68.63
8140;BME280;4111;50.972;7.072;2024-03-23T10:18:18;100507.44;;;11.52;69.32
8140;BME280;4111;50.972;7.072;2024-03-23T10:20:51;100501.25;;;11.57;68.88
8140;BME280;4111;50.972;7.072;2024-03-23T10:23:17;100500.06;;;11.80;69.56
8140;BME280;4111;50.972;7.072;2024-03-23T10:25:42;100501.56;;;11.98;68.84
8140;BME280;4111;50.972;7.072;2024-03-23T10:28:08;100501.06;;;12.01;67.46
8140;BME280;4111;50.972;7.072;2024-03-23T10:30:35;100503.22;;;11.99;66.90
8140;BME280;4111;50.972;7.072;2024-03-23T10:33:26;100496.97;;;12.04;66.34
8140;BME280;4111;50.972;7.072;2024-03-23T10:35:53;100503.25;;;11.72;65.07
8140;BME280;4111;50.972;7.072;2024-03-23T10:38:18;100485.00;;;11.67;65.34
8140;BME280;4111;50.972;7.072;2024-03-23T10:40:44;100484.09;;;11.57;65.50
8140;BME280;4111;50.972;7.072;2024-03-23T10:43:10;100505.41;;;11.38;65.08
8140;BME280;4111;50.972;7.072;2024-03-23T10:45:46;100504.16;;;11.18;64.88
8140;BME280;4111;50.972;7.072;2024-03-23T10:48:11;100508.38;;;11.09;65.36
8140;BME280;4111;50.972;7.072;2024-03-23T10:50:37;100514.34;;;11.06;66.39
8140;BME280;4111;50.972;7.072;2024-03-23T10:53:03;100535.56;;;11.09;67.30
8140;BME280;4111;50.972;7.072;2024-03-23T10:55:29;100547.91;;;10.95;67.97
8140;BME280;4111;50.972;7.072;2024-03-23T10:57:56;100558.38;;;10.64;68.97
8140;BME280;4111;50.972;7.072;2024-03-23T11:00:24;100570.28;;;10.24;71.12
8140;BME280;4111;50.972;7.072;2024-03-23T11:02:50;100553.69;;;10.03;73.02
8140;BME280;4111;50.972;7.072;2024-03-23T11:07:50;100577.31;;;9.57;74.61
8140;BME280;4111;50.972;7.072;2024-03-23T11:10:30;100573.03;;;9.44;75.33
8140;BME280;4111;50.972;7.072;2024-03-23T11:12:57;100570.38;;;9.32;76.93
8140;BME280;4111;50.972;7.072;2024-03-23T11:15:22;100571.00;;;9.23;77.75
8140;BME280;4111;50.972;7.072;2024-03-23T11:18:05;100564.22;;;9.08;78.34
8140;BME280;4111;50.972;7.072;2024-03-23T11:20:36;100560.59;;;9.03;79.73
8140;BME280;4111;50.972;7.072;2024-03-23T11:23:02;100563.91;;;8.93;80.04
8140;BME280;4111;50.972;7.072;2024-03-23T11:25:28;100574.03;;;8.98;80.07
8140;BME280;4111;50.972;7.072;2024-03-23T11:28:09;100578.13;;;9.00;81.42
8140;BME280;4111;50.972;7.072;2024-03-23T11:30:35;100563.94;;;8.81;81.82
8140;BME280;4111;50.972;7.072;2024-03-23T11:33:03;100570.31;;;8.75;83.91
8140;BME280;4111;50.972;7.072;2024-03-23T11:35:33;100571.16;;;8.52;83.89
8140;BME280;4111;50.972;7.072;2024-03-23T11:38:12;100558.44;;;8.17;82.14
8140;BME280;4111;50.972;7.072;2024-03-23T11:40:40;100562.06;;;7.99;82.60
8140;BME280;4111;50.972;7.072;2024-03-23T11:43:11;100559.97;;;8.01;84.80
8140;BME280;4111;50.972;7.072;2024-03-23T11:45:39;100550.81;;;8.02;85.86
8140;BME280;4111;50.972;7.072;2024-03-23T11:48:13;100550.44;;;8.10;86.04
8140;BME280;4111;50.972;7.072;2024-03-23T11:50:43;100542.34;;;8.34;86.05
8140;BME280;4111;50.972;7.072;2024-03-23T11:55:51;100533.50;;;9.03;85.89
8140;BME280;4111;50.972;7.072;2024-03-23T11:58:19;100540.25;;;8.88;84.34
8140;BME280;4111;50.972;7.072;2024-03-23T12:01:01;100534.97;;;8.82;84.02
8140;BME280;4111;50.972;7.072;2024-03-23T12:03:28;100531.13;;;8.78;84.53
8140;BME280;4111;50.972;7.072;2024-03-23T12:05:58;100522.38;;;8.87;85.80
8140;BME280;4111;50.972;7.072;2024-03-23T12:08:35;100525.09;;;8.87;84.92
8140;BME280;4111;50.972;7.072;2024-03-23T12:11:08;100529.09;;;8.85;87.00
8140;BME280;4111;50.972;7.072;2024-03-23T12:13:37;100526.72;;;8.88;87.51
8140;BME280;4111;50.972;7.072;2024-03-23T12:18:36;100529.88;;;8.97;86.54
8140;BME280;4111;50.972;7.072;2024-03-23T12:21:02;100524.22;;;8.99;86.00
8140;BME280;4111;50.972;7.072;2024-03-23T12:23:28;100516.19;;;9.04;85.56
8140;BME280;4111;50.972;7.072;2024-03-23T12:25:53;100509.72;;;9.05;85.00
8140;BME280;4111;50.972;7.072;2024-03-23T12:28:19;100504.75;;;9.30;85.40
8140;BME280;4111;50.972;7.072;2024-03-23T12:30:44;100523.81;;;9.36;84.41
8140;BME280;4111;50.972;7.072;2024-03-23T12:33:10;100525.75;;;9.23;84.91
8140;BME280;4111;50.972;7.072;2024-03-23T12:35:35;100561.88;;;9.00;82.98
8140;BME280;4111;50.972;7.072;2024-03-23T12:38:01;100560.09;;;9.06;82.64
8140;BME280;4111;50.972;7.072;2024-03-23T12:40:26;100556.53;;;9.17;82.58
8140;BME280;4111;50.972;7.072;2024-03-23T12:42:53;100584.97;;;9.31;82.12
8140;BME280;4111;50.972;7.072;2024-03-23T12:45:19;100584.59;;;9.11;81.69
8140;BME280;4111;50.972;7.072;2024-03-23T12:47:44;100594.75;;;8.92;82.05
8140;BME280;4111;50.972;7.072;2024-03-23T12:50:11;100586.88;;;8.79;83.20
8140;BME280;4111;50.972;7.072;2024-03-23T12:52:37;100596.47;;;8.58;83.82
8140;BME280;4111;50.972;7.072;2024-03-23T12:55:03;100591.84;;;8.23;84.94
8140;BME280;4111;50.972;7.072;2024-03-23T12:57:31;100559.50;;;8.63;86.44
8140;BME280;4111;50.972;7.072;2024-03-23T12:59:57;100549.91;;;8.84;87.37
8140;BME280;4111;50.972;7.072;2024-03-23T13:02:25;100547.31;;;8.89;88.21
8140;BME280;4111;50.972;7.072;2024-03-23T13:04:54;100529.25;;;9.07;88.01
8140;BME280;4111;50.972;7.072;2024-03-23T13:07:21;100530.94;;;9.42;86.90
8140;BME280;4111;50.972;7.072;2024-03-23T13:09:50;100533.06;;;9.68;86.05
8140;BME280;4111;50.972;7.072;2024-03-23T13:12:16;100543.47;;;9.77;85.01
8140;BME280;4111;50.972;7.072;2024-03-23T13:14:44;100531.47;;;10.06;83.35
8140;BME280;4111;50.972;7.072;2024-03-23T13:17:09;100532.41;;;10.51;82.64
8140;BME280;4111;50.972;7.072;2024-03-23T13:19:35;100526.16;;;10.95;80.56
8140;BME280;4111;50.972;7.072;2024-03-23T13:22:01;100535.25;;;10.83;78.91
8140;BME280;4111;50.972;7.072;2024-03-23T13:24:30;100525.34;;;10.50;77.77
8140;BME280;4111;50.972;7.072;2024-03-23T13:27:03;100521.59;;;10.34;76.92
8140;BME280;4111;50.972;7.072;2024-03-23T13:29:30;100520.63;;;10.06;75.99
8140;BME280;4111;50.972;7.072;2024-03-23T13:31:56;100515.69;;;10.37;76.24
8140;BME280;4111;50.972;7.072;2024-03-23T13:34:22;100504.19;;;10.74;75.01
8140;BME280;4111;50.972;7.072;2024-03-23T13:36:48;100503.66;;;11.54;74.73
8140;BME280;4111;50.972;7.072;2024-03-23T13:39:14;100503.47;;;11.98;72.59
8140;BME280;4111;50.972;7.072;2024-03-23T13:41:44;100494.97;;;12.26;70.40
8140;BME280;4111;50.972;7.072;2024-03-23T13:44:22;100494.84;;;12.59;70.61
8140;BME280;4111;50.972;7.072;2024-03-23T13:46:50;100484.13;;;12.42;70.22
8140;BME280;4111;50.972;7.072;2024-03-23T13:49:46;100490.59;;;12.94;70.09
8140;BME280;4111;50.972;7.072;2024-03-23T13:52:16;100484.09;;;13.10;68.55
8140;BME280;4111;50.972;7.072;2024-03-23T13:54:44;100477.47;;;12.80;67.77
8140;BME280;4111;50.972;7.072;2024-03-23T13:57:14;100477.88;;;12.41;67.46
8140;BME280;4111;50.972;7.072;2024-03-23T13:59:42;100484.94;;;11.95;66.79
8140;BME280;4111;50.972;7.072;2024-03-23T14:02:08;100479.88;;;11.39;66.66
8140;BME280;4111;50.972;7.072;2024-03-23T14:04:43;100487.28;;;11.16;67.50
8140;BME280;4111;50.972;7.072;2024-03-23T14:07:08;100472.88;;;10.88;68.02
8140;BME280;4111;50.972;7.072;2024-03-23T14:09:37;100490.03;;;10.72;67.96
8140;BME280;4111;50.972;7.072;2024-03-23T14:12:03;100487.53;;;10.43;67.21
8140;BME280;4111;50.972;7.072;2024-03-23T14:14:29;100486.72;;;10.26;67.35
8140;BME280;4111;50.972;7.072;2024-03-23T14:17:04;100493.25;;;9.91;66.83